Time;durP1;ratioP1;P1;durP2;ratioP2;P2;SDS_P1;SDS_P2;PMS_P1;PMS_P2;Temp;Humidity;BMP_temperature;BMP_pressure;BME280_temperature;BME280_humidity;BME280_pressure;Samples;Min_cycle;Max_cycle;Signal;HPM_P1;HPM_P2
2022/01/04 00:01:57;;;;;;;;;;;;;;;22.02;34.26;94870.09;10358250;28;1847;-63
2022/01/04 00:06:58;;;;;;;;;;;;;;;22.01;34.56;94874.59;10358653;28;1808;-61
2022/01/04 00:13:21;;;;;;;;;;;;;;;22.02;33.57;94855.06;10360487;28;1971;-62
2022/01/04 00:17:19;;;;;;;;;;;;;;;22.06;33.61;94852.56;10355645;28;1867;-63
2022/01/04 00:22:19;;;;;;;;;;;;;;;22.01;34.29;94837.66;10381443;28;2140;-62
2022/01/04 00:27:19;;;;;;;;;;;;;;;22.02;33.62;94836.56;10359537;28;1851;-63
2022/01/04 00:32:20;;;;;;;;;;;;;;;22.02;33.55;94820.75;10359483;28;1914;-63
2022/01/04 00:37:20;;;;;;;;;;;;;;;22.01;33.49;94819.19;10366351;28;1701;-63
2022/01/04 00:42:21;;;;;;;;;;;;;;;22.04;33.53;94809.88;10374654;28;1835;-63
2022/01/04 00:47:27;;;;;;;;;;;;;;;22.04;33.65;94804.59;10373404;28;1752;-63
2022/01/04 00:52:27;;;;;;;;;;;;;;;22.01;33.84;94776.94;10389570;28;1909;-62
2022/01/04 00:57:28;;;;;;;;;;;;;;;22.01;33.70;94773.56;10372215;28;1811;-62
2022/01/04 01:02:28;;;;;;;;;;;;;;;22.02;33.80;94769.81;10366191;28;1797;-63
2022/01/04 01:07:29;;;;;;;;;;;;;;;22.00;33.63;94754.31;10372328;28;1867;-61
2022/01/04 01:12:29;;;;;;;;;;;;;;;22.00;33.55;94764.06;10382260;28;1967;-62
2022/01/04 01:17:30;;;;;;;;;;;;;;;22.00;33.85;94753.53;10367047;28;1859;-64
2022/01/04 01:22:31;;;;;;;;;;;;;;;21.99;33.86;94742.19;10382008;28;1541;-62
2022/01/04 01:27:31;;;;;;;;;;;;;;;21.99;33.81;94741.41;10374251;28;2245;-62
2022/01/04 01:32:31;;;;;;;;;;;;;;;21.98;33.49;94740.63;10373272;28;1922;-63
2022/01/04 01:37:33;;;;;;;;;;;;;;;21.98;33.51;94730.09;10376914;28;1811;-63
2022/01/04 01:42:33;;;;;;;;;;;;;;;21.97;33.21;94731.16;10382044;28;1852;-63
2022/01/04 01:47:35;;;;;;;;;;;;;;;21.97;33.51;94709.28;10373418;28;1828;-63
2022/01/04 01:52:36;;;;;;;;;;;;;;;21.98;33.23;94690.50;10394865;28;1959;-63
2022/01/04 01:57:36;;;;;;;;;;;;;;;22.01;33.22;94675.91;10349341;28;1842;-62
2022/01/04 02:02:36;;;;;;;;;;;;;;;21.96;33.29;94668.94;10362063;28;1950;-63
2022/01/04 02:07:37;;;;;;;;;;;;;;;21.92;33.62;94652.16;10371304;28;2056;-62
2022/01/04 02:12:39;;;;;;;;;;;;;;;21.92;33.58;94646.09;10366687;28;1906;-62
2022/01/04 02:17:40;;;;;;;;;;;;;;;21.91;33.18;94645.31;10370053;28;1954;-62
2022/01/04 02:22:40;;;;;;;;;;;;;;;21.92;33.13;94635.53;10383043;28;2027;-63
2022/01/04 02:27:43;;;;;;;;;;;;;;;21.91;33.63;94613.66;10367137;28;1792;-62
2022/01/04 02:32:44;;;;;;;;;;;;;;;21.90;33.10;94606.84;10369139;28;1935;-63
2022/01/04 02:37:44;;;;;;;;;;;;;;;21.91;33.54;94600.47;10357931;28;1949;-62
2022/01/04 02:42:45;;;;;;;;;;;;;;;21.91;32.89;94582.00;10353292;28;1954;-62
2022/01/04 02:47:45;;;;;;;;;;;;;;;21.90;33.45;94566.47;10369235;28;1954;-62
2022/01/04 02:52:46;;;;;;;;;;;;;;;21.91;33.47;94560.88;10378154;28;2108;-63
2022/01/04 02:57:46;;;;;;;;;;;;;;;21.91;33.19;94550.34;10358138;28;1976;-63
2022/01/04 03:02:46;;;;;;;;;;;;;;;21.90;33.57;94548.00;10361735;28;1986;-63
2022/01/04 03:07:47;;;;;;;;;;;;;;;21.92;33.37;94525.50;10361515;28;1970;-62
2022/01/04 03:12:47;;;;;;;;;;;;;;;21.91;32.96;94523.94;10358164;28;2384;-62
2022/01/04 03:17:48;;;;;;;;;;;;;;;21.90;33.32;94522.41;10360864;28;2001;-63
2022/01/04 03:22:48;;;;;;;;;;;;;;;21.90;33.32;94511.84;10362150;28;1978;-62
2022/01/04 03:27:48;;;;;;;;;;;;;;;21.89;33.63;94489.19;10342363;28;2024;-63
2022/01/04 03:32:49;;;;;;;;;;;;;;;21.88;33.58;94469.19;10344472;28;1969;-64
2022/01/04 03:37:50;;;;;;;;;;;;;;;21.88;33.50;94468.41;10358603;28;1914;-63
2022/01/04 03:42:50;;;;;;;;;;;;;;;21.88;32.94;94459.38;10357096;28;2091;-63
2022/01/04 03:47:51;;;;;;;;;;;;;;;21.88;33.63;94440.16;10361883;28;2107;-62
2022/01/04 03:52:51;;;;;;;;;;;;;;;21.86;33.04;94422.00;10359823;28;2034;-61
2022/01/04 03:57:52;;;;;;;;;;;;;;;21.86;33.08;94421.22;10357002;28;1989;-63
2022/01/04 04:02:52;;;;;;;;;;;;;;;21.88;33.22;94390.78;10359341;28;1938;-63
2022/01/04 04:07:53;;;;;;;;;;;;;;;21.85;33.70;94394.06;10360949;28;1957;-63
2022/01/04 04:12:53;;;;;;;;;;;;;;;21.85;33.55;94378.25;10351872;28;2009;-61
2022/01/04 04:17:54;;;;;;;;;;;;;;;21.85;33.80;94378.25;10355785;28;1878;-62
2022/01/04 04:22:55;;;;;;;;;;;;;;;21.86;33.64;94373.75;10383126;23;1848;-50
2022/01/04 04:27:55;;;;;;;;;;;;;;;21.85;33.34;94362.41;10375809;28;1854;-43
2022/01/04 04:32:56;;;;;;;;;;;;;;;21.84;33.32;94360.09;10378559;28;1914;-48
2022/01/04 04:38:00;;;;;;;;;;;;;;;21.87;33.31;94343.63;10371173;28;1869;-44
2022/01/04 04:43:00;;;;;;;;;;;;;;;21.85;33.14;94346.59;10377872;28;1829;-43
2022/01/04 04:48:02;;;;;;;;;;;;;;;21.84;32.83;94337.13;10371710;28;2005;-43
2022/01/04 04:53:02;;;;;;;;;;;;;;;21.84;33.24;94333.72;10378779;28;1979;-44
2022/01/04 04:58:03;;;;;;;;;;;;;;;21.86;33.59;94326.25;10378216;28;1775;-45
2022/01/04 05:03:03;;;;;;;;;;;;;;;21.85;32.60;94327.34;10373248;28;1866;-41
2022/01/04 05:08:04;;;;;;;;;;;;;;;21.84;33.55;94315.25;10377078;28;1878;-44
2022/01/04 05:13:04;;;;;;;;;;;;;;;21.84;33.44;94315.25;10369589;28;2024;-42
2022/01/04 05:18:04;;;;;;;;;;;;;;;21.83;33.20;94308.41;10374561;28;1953;-43
2022/01/04 05:23:05;;;;;;;;;;;;;;;21.83;33.33;94311.06;10362648;28;1763;-43
2022/01/04 05:28:05;;;;;;;;;;;;;;;21.84;33.15;94297.53;10379139;28;1753;-41
2022/01/04 05:33:05;;;;;;;;;;;;;;;21.83;33.35;94295.22;10381324;28;1920;-47
2022/01/04 05:38:06;;;;;;;;;;;;;;;21.83;33.11;94287.31;10380652;28;1854;-44
2022/01/04 05:43:06;;;;;;;;;;;;;;;21.83;33.22;94289.94;10382097;28;1839;-48
2022/01/04 05:48:06;;;;;;;;;;;;;;;21.82;33.28;94293.69;10378422;28;1799;-46
2022/01/04 05:53:07;;;;;;;;;;;;;;;21.81;32.97;94287.63;10378522;28;1910;-47
2022/01/04 05:58:07;;;;;;;;;;;;;;;21.85;32.94;94287.78;10380370;28;1806;-44
2022/01/04 06:03:08;;;;;;;;;;;;;;;21.85;33.41;94287.78;10375839;28;1862;-48
2022/01/04 06:08:08;;;;;;;;;;;;;;;21.84;32.95;94300.19;10375685;28;1882;-45
2022/01/04 06:18:09;;;;;;;;;;;;;;;21.83;33.21;94295.22;10374233;28;1804;-50
2022/01/04 06:23:10;;;;;;;;;;;;;;;21.82;32.88;94283.91;10376944;28;1815;-44
2022/01/04 06:28:10;;;;;;;;;;;;;;;21.84;32.78;94270.41;10379576;28;1815;-44
2022/01/04 06:33:11;;;;;;;;;;;;;;;21.83;33.16;94269.63;10376586;28;1993;-41
2022/01/04 06:38:11;;;;;;;;;;;;;;;21.83;32.95;94259.09;10368220;28;2044;-41
2022/01/04 06:43:11;;;;;;;;;;;;;;;21.82;32.71;94256.78;10368532;28;1907;-42
2022/01/04 06:48:12;;;;;;;;;;;;;;;21.82;33.38;94241.69;10375764;28;1894;-43
2022/01/04 06:53:12;;;;;;;;;;;;;;;21.82;33.10;94228.50;10376975;28;1985;-42
2022/01/04 06:58:13;;;;;;;;;;;;;;;21.82;32.83;94228.50;10379370;28;1846;-43
2022/01/04 07:03:13;;;;;;;;;;;;;;;21.80;33.39;94227.28;10368350;28;1850;-43
2022/01/04 07:08:14;;;;;;;;;;;;;;;21.82;33.87;94225.13;10366373;28;1823;-46
2022/01/04 07:13:14;;;;;;;;;;;;;;;21.80;33.46;94222.75;10376350;28;1922;-45
2022/01/04 07:18:15;;;;;;;;;;;;;;;21.82;33.31;94219.84;10359362;28;2168;-43
2022/01/04 07:23:15;;;;;;;;;;;;;;;21.80;33.46;94222.00;10366125;28;2000;-44
2022/01/04 07:28:15;;;;;;;;;;;;;;;21.82;33.37;94209.28;10375625;28;2137;-43
2022/01/04 07:33:17;;;;;;;;;;;;;;;21.79;33.45;94189.56;10371172;28;2010;-47
2022/01/04 07:38:17;;;;;;;;;;;;;;;21.80;33.25;94177.16;10373148;28;1886;-47
2022/01/04 07:43:17;;;;;;;;;;;;;;;21.80;32.84;94175.25;10374612;28;1854;-47
2022/01/04 07:48:18;;;;;;;;;;;;;;;21.77;33.40;94164.59;10373800;28;2019;-42
2022/01/04 07:53:18;;;;;;;;;;;;;;;21.76;32.89;94158.53;10372529;28;1954;-46
2022/01/04 07:58:19;;;;;;;;;;;;;;;21.80;33.24;94148.88;10393814;28;2270;-43
2022/01/04 08:03:19;;;;;;;;;;;;;;;21.75;33.29;94140.41;10376612;28;2027;-41
2022/01/04 08:08:20;;;;;;;;;;;;;;;21.77;33.13;94127.66;10377514;28;1841;-44
2022/01/04 08:13:20;;;;;;;;;;;;;;;21.77;33.26;94125.03;10372596;28;1902;-45
2022/01/04 08:18:20;;;;;;;;;;;;;;;21.76;32.95;94116.34;10373243;28;1840;-47
2022/01/04 08:23:22;;;;;;;;;;;;;;;21.77;33.33;94099.44;10377066;28;2071;-47
2022/01/04 08:28:22;;;;;;;;;;;;;;;21.75;33.08;94103.47;10375866;28;1879;-43
2022/01/04 08:33:22;;;;;;;;;;;;;;;21.74;33.17;94073.69;10377751;28;2008;-46
2022/01/04 08:38:23;;;;;;;;;;;;;;;21.75;33.42;94066.56;10375067;28;1847;-42
2022/01/04 08:43:26;;;;;;;;;;;;;;;21.75;32.91;94058.63;10377344;28;1989;-43
2022/01/04 08:48:27;;;;;;;;;;;;;;;21.76;33.50;94052.28;10374944;28;2173;-42
2022/01/04 08:53:27;;;;;;;;;;;;;;;21.74;33.54;94049.94;10370854;28;1976;-44
2022/01/04 08:58:30;;;;;;;;;;;;;;;21.76;33.61;94028.56;10374359;28;1826;-47
2022/01/04 09:03:32;;;;;;;;;;;;;;;21.73;33.49;94019.41;10386703;28;1996;-47
2022/01/04 09:08:33;;;;;;;;;;;;;;;21.75;33.19;93997.97;10381678;28;1957;-45
2022/01/04 09:13:38;;;;;;;;;;;;;;;21.74;33.55;94017.56;10381074;28;1972;-48
2022/01/04 09:18:46;;;;;;;;;;;;;;;21.74;33.28;93994.56;10384050;28;1815;-41
2022/01/04 09:23:47;;;;;;;;;;;;;;;21.75;33.64;94014.59;10382984;28;1901;-44
2022/01/04 09:28:47;;;;;;;;;;;;;;;21.77;33.75;94016.88;10383204;28;1807;-46
2022/01/04 09:33:48;;;;;;;;;;;;;;;21.75;33.54;94009.31;10384921;28;1976;-43
2022/01/04 09:38:48;;;;;;;;;;;;;;;21.73;33.53;94000.94;10367466;28;2052;-45
2022/01/04 09:43:48;;;;;;;;;;;;;;;21.76;33.63;93989.00;10389871;28;1787;-46
2022/01/04 09:48:49;;;;;;;;;;;;;;;21.74;33.33;93978.00;10381952;28;1880;-44
2022/01/04 09:53:49;;;;;;;;;;;;;;;21.74;33.48;93964.81;10379741;28;2116;-43
2022/01/04 09:58:51;;;;;;;;;;;;;;;21.75;33.62;93961.84;10360315;28;1831;-48
2022/01/04 10:03:52;;;;;;;;;;;;;;;21.73;33.34;93958.75;10388744;28;1828;-42
2022/01/04 10:08:56;;;;;;;;;;;;;;;21.74;33.66;93954.25;10366901;28;1748;-44
2022/01/04 10:13:57;;;;;;;;;;;;;;;21.76;33.60;93952.81;10376951;28;1965;-46
2022/01/04 10:18:58;;;;;;;;;;;;;;;21.73;34.05;93942.94;10381129;28;1831;-44
2022/01/04 10:23:58;;;;;;;;;;;;;;;21.73;33.48;93935.03;10383538;28;1494;-45
2022/01/04 10:28:58;;;;;;;;;;;;;;;21.73;33.47;93932.38;10409746;23;2289;-63
2022/01/04 10:33:59;;;;;;;;;;;;;;;21.72;33.83;93916.88;10406980;28;1919;-62
2022/01/04 10:39:04;;;;;;;;;;;;;;;21.71;33.55;93907.41;10402790;28;1811;-62
2022/01/04 10:44:06;;;;;;;;;;;;;;;21.73;33.96;93906.00;10404937;28;2055;-62
2022/01/04 10:49:13;;;;;;;;;;;;;;;21.72;33.63;93901.06;10402486;28;2287;-62
2022/01/04 10:54:18;;;;;;;;;;;;;;;21.70;34.11;93890.81;10406333;28;1976;-61
2022/01/04 10:59:18;;;;;;;;;;;;;;;21.74;33.55;93886.44;10401010;28;1976;-60
2022/01/04 11:04:19;;;;;;;;;;;;;;;21.75;33.80;93871.41;10403642;28;1832;-63
2022/01/04 11:09:19;;;;;;;;;;;;;;;21.70;33.66;93859.19;10403032;28;1817;-63
2022/01/04 11:14:20;;;;;;;;;;;;;;;21.74;33.67;93854.78;10402724;28;1937;-63
2022/01/04 11:19:21;;;;;;;;;;;;;;;21.73;33.21;93853.25;10396641;28;1794;-64
2022/01/04 11:24:23;;;;;;;;;;;;;;;21.72;33.16;93840.41;10403713;28;1760;-62
2022/01/04 11:29:24;;;;;;;;;;;;;;;21.69;33.65;93830.50;10401021;28;2003;-64
2022/01/04 11:34:26;;;;;;;;;;;;;;;21.74;33.06;93817.13;10383143;28;1971;-62
2022/01/04 11:39:27;;;;;;;;;;;;;;;21.73;33.11;93799.75;10382811;28;1881;-63
2022/01/04 11:44:28;;;;;;;;;;;;;;;21.75;33.67;93794.91;10399369;28;1846;-64
2022/01/04 11:49:29;;;;;;;;;;;;;;;21.77;33.05;93766.34;10416331;28;1863;-63
2022/01/04 11:54:30;;;;;;;;;;;;;;;21.78;33.26;93779.19;10404672;28;1985;-62
2022/01/04 11:59:30;;;;;;;;;;;;;;;21.77;33.31;93761.06;10399768;28;1891;-62
2022/01/04 12:04:50;;;;;;;;;;;;;;;21.79;33.66;93766.78;10399536;28;1878;-62
2022/01/04 12:09:51;;;;;;;;;;;;;;;21.83;33.53;93765.84;10381539;28;1940;-63
2022/01/04 12:14:52;;;;;;;;;;;;;;;21.83;33.46;93728.13;10400695;28;1865;-63
2022/01/04 12:19:53;;;;;;;;;;;;;;;21.86;34.21;93712.41;10399749;28;1841;-62
2022/01/04 12:24:55;;;;;;;;;;;;;;;21.93;35.38;93730.34;10384818;28;1570;-62
2022/01/04 12:30:25;;;;;;;;;;;;;;;21.96;35.03;93719.13;10382724;28;1910;-63
2022/01/04 12:35:45;;;;;;;;;;;;;;;21.97;35.12;93698.81;10377899;28;1659;-62
2022/01/04 12:40:50;;;;;;;;;;;;;;;21.94;35.21;93687.03;10400147;28;1700;-61
2022/01/04 12:45:57;;;;;;;;;;;;;;;21.94;35.39;93697.59;10398721;28;1416;-62
2022/01/04 12:50:59;;;;;;;;;;;;;;;21.93;35.54;93685.50;10397468;28;1918;-62
2022/01/04 12:56:00;;;;;;;;;;;;;;;21.93;35.54;93684.75;10392165;28;2202;-62
2022/01/04 13:01:00;;;;;;;;;;;;;;;21.92;35.52;93680.56;10397473;28;1780;-61
2022/01/04 13:06:03;;;;;;;;;;;;;;;21.91;35.71;93673.75;10389211;28;1406;-61
2022/01/04 13:11:07;;;;;;;;;;;;;;;21.87;35.58;93668.34;10397983;28;1898;-61
2022/01/04 13:16:17;;;;;;;;;;;;;;;21.85;35.44;93686.38;10397737;28;1478;-62
2022/01/04 13:21:24;;;;;;;;;;;;;;;21.80;35.69;93687.34;10396931;28;1779;-62
2022/01/04 13:26:25;;;;;;;;;;;;;;;21.78;35.63;93691.44;10396272;28;1640;-62
2022/01/04 13:31:25;;;;;;;;;;;;;;;21.76;35.58;93701.53;10398351;28;2127;-63
2022/01/04 13:36:26;;;;;;;;;;;;;;;21.76;35.53;93712.81;10399803;28;1368;-62
2022/01/04 13:41:33;;;;;;;;;;;;;;;21.75;35.32;93708.66;10379956;28;1784;-62
2022/01/04 13:46:34;;;;;;;;;;;;;;;21.78;35.20;93725.72;10401661;28;1311;-62
2022/01/04 13:51:35;;;;;;;;;;;;;;;21.76;35.22;93725.25;10401269;28;1902;-61
2022/01/04 13:56:35;;;;;;;;;;;;;;;21.75;35.05;93736.91;10405658;28;1251;-61
2022/01/04 14:01:36;;;;;;;;;;;;;;;21.74;34.80;93745.91;10404608;28;2179;-62
2022/01/04 14:06:52;;;;;;;;;;;;;;;21.74;34.53;93735.38;10404719;28;1385;-61
2022/01/04 14:11:53;;;;;;;;;;;;;;;21.75;34.69;93760.63;10406411;28;1977;-62
2022/01/04 14:16:54;;;;;;;;;;;;;;;21.77;34.87;93759.22;10404365;28;1660;-61
2022/01/04 14:21:56;;;;;;;;;;;;;;;21.75;34.99;93758.00;10404987;28;1448;-62
2022/01/04 14:26:57;;;;;;;;;;;;;;;21.76;34.92;93768.22;10401719;28;1379;-62
2022/01/04 14:32:01;;;;;;;;;;;;;;;21.76;34.81;93764.81;10402624;28;1910;-61
2022/01/04 14:37:01;;;;;;;;;;;;;;;21.75;34.85;93764.03;10404898;28;1682;-62
2022/01/04 14:42:02;;;;;;;;;;;;;;;21.76;34.75;93764.81;10405657;28;1293;-61
2022/01/04 14:47:03;;;;;;;;;;;;;;;21.77;35.02;93769.75;10402225;28;1457;-60
2022/01/04 14:52:05;;;;;;;;;;;;;;;21.75;34.94;93777.22;10402399;28;1905;-61
2022/01/04 14:57:05;;;;;;;;;;;;;;;21.75;34.85;93766.69;10400280;28;2002;-61
2022/01/04 15:02:10;;;;;;;;;;;;;;;21.79;35.07;93779.97;10395404;28;1914;-60
2022/01/04 15:07:11;;;;;;;;;;;;;;;21.79;34.79;93772.06;10400423;28;1437;-61
2022/01/04 15:12:12;;;;;;;;;;;;;;;21.77;34.75;93788.22;10402914;28;1910;-62
2022/01/04 15:17:13;;;;;;;;;;;;;;;21.78;35.24;93804.81;10400617;28;1652;-62
2022/01/04 15:22:16;;;;;;;;;;;;;;;21.80;34.95;93823.72;10400236;28;1438;-60
2022/01/04 15:27:23;;;;;;;;;;;;;;;21.77;35.03;93827.00;10381796;28;1288;-62
2022/01/04 15:32:24;;;;;;;;;;;;;;;21.80;34.98;93829.00;10398145;28;1982;-61
2022/01/04 15:37:25;;;;;;;;;;;;;;;21.84;35.00;93828.03;10401372;28;1512;-61
2022/01/04 15:42:27;;;;;;;;;;;;;;;21.87;34.63;93839.81;10391982;28;1561;-61
2022/01/04 15:47:27;;;;;;;;;;;;;;;21.78;33.66;93829.31;10399314;28;1563;-62
2022/01/04 15:52:30;;;;;;;;;;;;;;;21.80;33.74;93810.53;10404129;28;1922;-59
2022/01/04 15:57:30;;;;;;;;;;;;;;;21.81;34.03;93801.50;10400144;28;1484;-60
2022/01/04 16:02:31;;;;;;;;;;;;;;;21.79;33.29;93803.72;10403683;28;1187;-62
2022/01/04 16:07:31;;;;;;;;;;;;;;;21.83;33.95;93794.06;10400364;28;1391;-60
2022/01/04 16:12:32;;;;;;;;;;;;;;;21.79;32.88;93806.34;10398632;28;1914;-61
2022/01/04 16:22:35;;;;;;;;;;;;;;;21.83;33.73;93823.88;10396429;28;1451;-61
2022/01/04 16:27:36;;;;;;;;;;;;;;;21.79;32.91;93825.59;10399912;28;1334;-60
2022/01/04 16:32:36;;;;;;;;;;;;;;;21.86;34.31;93804.72;10393053;23;2041;-70
2022/01/04 16:37:37;;;;;;;;;;;;;;;21.91;33.39;93822.22;10385825;28;1953;-70
2022/01/04 16:42:37;;;;;;;;;;;;;;;21.91;33.92;93830.13;10389485;28;1863;-70
2022/01/04 16:47:38;;;;;;;;;;;;;;;21.93;33.59;93814.00;10393951;28;1873;-69
2022/01/04 16:52:39;;;;;;;;;;;;;;;21.93;34.07;93822.66;10388520;23;1162877;-42
2022/01/04 16:57:39;;;;;;;;;;;;;;;21.93;34.68;93829.84;10430305;28;1818;-39
2022/01/04 17:02:40;;;;;;;;;;;;;;;21.94;34.72;93826.06;10430635;28;2339;-42
2022/01/04 17:07:40;;;;;;;;;;;;;;;21.95;34.77;93836.28;10432535;28;1403;-39
2022/01/04 17:18:13;;;;;;;;;;;;;;;21.95;35.69;93854.00;10373459;28;1798;-42
2022/01/04 17:23:15;;;;;;;;;;;;;;;21.94;35.55;93853.22;10440730;28;1842;-46
2022/01/04 17:28:16;;;;;;;;;;;;;;;21.92;35.60;93844.09;10424283;28;1782;-42
2022/01/04 17:33:16;;;;;;;;;;;;;;;21.92;35.49;93828.28;10438948;28;2080;-45
2022/01/04 17:38:17;;;;;;;;;;;;;;;21.87;35.74;93847.72;10440692;28;1839;-43
2022/01/04 17:43:18;;;;;;;;;;;;;;;21.86;35.54;93849.56;10437196;28;2014;-45
2022/01/04 17:48:21;;;;;;;;;;;;;;;21.85;35.89;93847.28;10434349;28;1972;-41
2022/01/04 17:53:22;;;;;;;;;;;;;;;21.80;35.99;93842.94;10440387;28;1965;-40
2022/01/04 17:58:22;;;;;;;;;;;;;;;21.80;35.71;93847.47;10443663;28;1833;-42
2022/01/04 18:03:22;;;;;;;;;;;;;;;21.77;36.13;93845.47;10441774;28;1859;-40
2022/01/04 18:08:23;;;;;;;;;;;;;;;21.72;36.10;93837.78;10442236;28;1748;-40
2022/01/04 18:13:24;;;;;;;;;;;;;;;21.71;35.80;93823.81;10440908;28;1906;-39
2022/01/04 18:18:25;;;;;;;;;;;;;;;21.71;35.81;93838.84;10436599;28;1782;-43
2022/01/04 18:23:26;;;;;;;;;;;;;;;21.70;35.84;93837.34;10422221;28;1821;-40
2022/01/04 18:28:27;;;;;;;;;;;;;;;21.69;35.92;93843.69;10437646;28;2041;-41
2022/01/04 18:33:27;;;;;;;;;;;;;;;21.69;36.18;93864.78;10437930;28;1910;-43
2022/01/04 18:38:29;;;;;;;;;;;;;;;21.68;36.25;93871.13;10441260;28;1699;-43
2022/01/04 18:43:30;;;;;;;;;;;;;;;21.69;35.91;93884.03;10441223;28;1876;-43
2022/01/04 18:48:30;;;;;;;;;;;;;;;21.69;36.05;93877.97;10437809;28;1844;-44
2022/01/04 18:53:30;;;;;;;;;;;;;;;21.69;36.04;93889.28;10440389;28;1977;-42
2022/01/04 18:58:31;;;;;;;;;;;;;;;21.71;36.07;93896.88;10438837;28;1849;-40
2022/01/04 19:03:31;;;;;;;;;;;;;;;21.69;36.16;93899.06;10439342;28;1789;-43
2022/01/04 19:08:31;;;;;;;;;;;;;;;21.70;36.01;93905.91;10437319;28;2017;-43
2022/01/04 19:13:32;;;;;;;;;;;;;;;21.71;36.03;93924.03;10434330;28;1971;-39
2022/01/04 19:18:33;;;;;;;;;;;;;;;21.71;36.22;93923.25;10434636;28;1861;-41
2022/01/04 19:23:34;;;;;;;;;;;;;;;21.71;36.18;93936.44;10435094;28;1896;-46
2022/01/04 19:28:34;;;;;;;;;;;;;;;21.72;36.12;93943.25;10436902;28;1777;-41
2022/01/04 19:38:35;;;;;;;;;;;;;;;21.83;36.44;93950.47;10441969;28;2274;-44
2022/01/04 19:43:35;;;;;;;;;;;;;;;21.87;36.80;93974.31;10431595;28;1960;-45
2022/01/04 19:48:36;;;;;;;;;;;;;;;21.92;36.82;93978.63;10433605;28;1941;-42
2022/01/04 19:53:37;;;;;;;;;;;;;;;21.95;36.63;93984.03;10435858;28;2017;-40
2022/01/04 19:58:37;;;;;;;;;;;;;;;21.99;36.82;94000.75;10433671;28;1868;-43
2022/01/04 20:03:37;;;;;;;;;;;;;;;21.98;36.81;94007.13;10436157;28;1553;-39
2022/01/04 20:08:38;;;;;;;;;;;;;;;21.58;34.65;94016.56;10427709;28;2779;-40
2022/01/04 20:13:38;;;;;;;;;;;;;;;20.98;34.48;94030.81;10424760;28;1909;-46
2022/01/04 20:18:39;;;;;;;;;;;;;;;20.37;34.82;94033.97;10425693;28;1907;-45
2022/01/04 20:23:39;;;;;;;;;;;;;;;20.01;35.17;94057.19;10430698;28;1810;-40
2022/01/04 20:28:40;;;;;;;;;;;;;;;20.51;35.90;94042.44;10431643;28;1829;-40
2022/01/04 20:33:41;;;;;;;;;;;;;;;20.89;35.83;94071.47;10432522;28;1906;-43
2022/01/04 20:38:41;;;;;;;;;;;;;;;21.19;35.63;94053.84;10436257;28;1981;-42
2022/01/04 20:43:42;;;;;;;;;;;;;;;21.41;35.69;94058.88;10434200;28;1958;-42
2022/01/04 20:48:42;;;;;;;;;;;;;;;21.36;35.01;94059.81;10428197;28;1781;-41
2022/01/04 20:53:43;;;;;;;;;;;;;;;21.37;34.48;94079.03;10431424;28;1902;-38
2022/01/04 20:58:43;;;;;;;;;;;;;;;21.42;34.45;94082.25;10441288;28;1854;-40
2022/01/04 21:03:44;;;;;;;;;;;;;;;21.54;35.12;94100.03;10438750;28;1816;-43
2022/01/04 21:08:45;;;;;;;;;;;;;;;21.65;35.85;94088.81;10436040;28;1798;-46
2022/01/04 21:13:45;;;;;;;;;;;;;;;21.66;35.97;94082.44;10439928;28;1914;-44
2022/01/04 21:18:46;;;;;;;;;;;;;;;21.65;35.96;94088.81;10435284;28;1848;-39
2022/01/04 21:23:48;;;;;;;;;;;;;;;21.67;36.20;94091.13;10454678;28;1814;-42
2022/01/04 21:28:49;;;;;;;;;;;;;;;21.70;36.26;94088.59;10425893;28;2167;-42
2022/01/04 21:33:49;;;;;;;;;;;;;;;21.70;36.59;94085.22;10426425;28;1989;-40
2022/01/04 21:38:49;;;;;;;;;;;;;;;21.73;36.50;94100.38;10427003;28;1851;-43
2022/01/04 21:43:51;;;;;;;;;;;;;;;21.74;36.67;94100.06;10427271;28;1983;-44
2022/01/04 21:48:52;;;;;;;;;;;;;;;21.74;36.80;94096.66;10426171;28;1561;-45
2022/01/04 21:53:53;;;;;;;;;;;;;;;21.75;36.27;94091.06;10424701;28;1917;-46
2022/01/04 21:58:53;;;;;;;;;;;;;;;21.75;36.35;94117.44;10429462;28;1766;-41
2022/01/04 22:03:54;;;;;;;;;;;;;;;21.79;36.56;94122.84;10427934;28;1796;-40
2022/01/04 22:08:55;;;;;;;;;;;;;;;21.78;36.54;94108.13;10427657;28;2006;-41
2022/01/04 22:13:55;;;;;;;;;;;;;;;21.80;36.57;94124.41;10436030;28;1929;-39
2022/01/04 22:18:55;;;;;;;;;;;;;;;21.79;36.56;94113.06;10434898;28;1875;-40
2022/01/04 22:23:56;;;;;;;;;;;;;;;21.78;36.57;94116.03;10433933;28;1812;-43
2022/01/04 22:28:56;;;;;;;;;;;;;;;21.77;36.63;94125.03;10438957;28;1752;-42
2022/01/04 22:33:57;;;;;;;;;;;;;;;21.78;36.13;94131.84;10453228;23;3620;-60
2022/01/04 22:38:57;;;;;;;;;;;;;;;21.78;36.46;94123.94;10443224;28;1747;-61
2022/01/04 22:44:02;;;;;;;;;;;;;;;21.79;36.07;94143.94;10437035;28;1918;-64
2022/01/04 22:49:04;;;;;;;;;;;;;;;21.78;35.73;94139.78;10420651;28;1933;-62
2022/01/04 22:54:06;;;;;;;;;;;;;;;21.80;35.76;94119.13;10410308;28;1910;-63
2022/01/04 22:59:06;;;;;;;;;;;;;;;21.78;36.00;94102.84;10412087;28;1822;-62
2022/01/04 23:04:06;;;;;;;;;;;;;;;21.80;35.16;94104.06;10415757;28;1870;-62
2022/01/04 23:09:07;;;;;;;;;;;;;;;21.80;35.21;94105.94;10417287;28;1869;-62
2022/01/04 23:14:07;;;;;;;;;;;;;;;21.77;35.22;94088.88;10416054;28;1969;-62
2022/01/04 23:19:08;;;;;;;;;;;;;;;21.76;35.00;94100.50;10433028;28;1866;-63
2022/01/04 23:24:08;;;;;;;;;;;;;;;21.78;34.72;94094.94;10421444;28;1877;-63
2022/01/04 23:29:10;;;;;;;;;;;;;;;21.78;34.64;94103.59;10413456;28;2024;-63
2022/01/04 23:34:11;;;;;;;;;;;;;;;21.80;35.13;94103.31;10418192;28;1960;-63
2022/01/04 23:39:12;;;;;;;;;;;;;;;21.75;34.09;94088.44;10413192;28;1811;-62
2022/01/04 23:44:12;;;;;;;;;;;;;;;21.77;34.75;94090.75;10419049;28;1854;-63
2022/01/04 23:49:12;;;;;;;;;;;;;;;21.79;35.00;94093.81;10415038;28;1819;-62
2022/01/04 23:54:13;;;;;;;;;;;;;;;21.76;34.71;94094.47;10422439;28;1934;-63
2022/01/04 23:59:13;;;;;;;;;;;;;;;21.78;34.91;94087.78;10417338;28;1785;-63
